Airfield :
LOGIN :

Register | Disclaimer

   EN    FR    IT 

 










Legend :    VFR   Marginal VFR   IFR   Intensive IFR   Very Intensive IFR
Visi :
Ceiling :
>= 8 km
>= 3000ft
5 to 8 km
1000 to 3000 ft
1500m to 5 km
500 to 1000 ft
800 to 1500m
200 to 500 ft
< 800m
< 200 ft
Symbols :   Thunderstorms  Fog  Heavy snow  Heavy precipitations  Wind > 20 kt
SIGMETs :     Misc.  Thunderstorms  Icing  Turbulence  Mountain Waves  Volcanic Ashes






- Airport Elevation : 326 ft
- IATA code : LCG


LECO - A Coruna

CURRENT METAR :
  • 010530Z VRB01KT 9999 -RA FEW045 07/07 Q1010 TEMPO RA

EXPIRED METARs :
  • 010500Z 00000KT 9999 -RA SCT045 08/07 Q1010 TEMPO RA
  • 010430Z VRB01KT 9999 -RA FEW030 BKN048 07/07 Q1010 TEMPO RA
  • 010400Z VRB02KT 8000 -RA FEW030 BKN048 07/07 Q1010 TEMPO RA
  • 010330Z 21003KT 9999 -RA FEW030 08/07 Q1010 TEMPO RA
  • 010300Z AUTO 18004KT 9999 -RA SCT047 08/07 Q1010

TAF AMD TAF LECO
Valid from the 01 at 05:00 until the 02 at 03:00 UTC


010553Z 0105/0203 VRB05KT 9999 SCT040 TX12/0114Z TN06/0106Z
PROB40
TEMPO 0105/0109 1500 BCFG BR
PROB40
TEMPO 0105/0106 3000 RA BKN014
BECMG 0110/0114 36010KT
PROB40
TEMPO 0112/0118 SHRA SCT030TCU
TEMPO 0121/0203 BKN010 BKN014



MET'MAP, your aeronautical weather chart ! - Copyright ORBIFLY December 2007 - Disclaimer

ORBIFLY MET'MAP TEAM :

Programming & Development : Alexandra Zaïnal
Concept & original design : Baudouin d'Aumeries
Assistance for programming : Marc-Olivier Méhu
Technical & hardware support : Manuel Goepfert

Contact : metmap@orbifly.com




SOURCES & CREDITS :

   NOAA